Aviation Digital Data Service (ADDS)

Output produced by METARs form (2102 UTC 21 October 2017)
found at http://aviationweather.gov/adds/metars/
 
KMPV 211720Z 2118/2218 28005KT P6SM FEW250 
     FM221600 16005KT P6SM FEW200